Time;durP1;ratioP1;P1;durP2;ratioP2;P2;SDS_P1;SDS_P2;PMS_P1;PMS_P2;Temp;Humidity;BMP_temperature;BMP_pressure;BME280_temperature;BME280_humidity;BME280_pressure;Samples;Min_cycle;Max_cycle;Signal;HPM_P1;HPM_P2
2023/10/14 00:00:53;;;;;;;;;;;12.30;99.90;;;;;;5118795;28;20281;-58
2023/10/14 00:03:29;;;;;;;;;;;12.20;99.90;;;;;;5118744;28;19922;-58
2023/10/14 00:05:55;;;;;;;;;;;12.30;99.90;;;;;;5118653;28;19984;-58
2023/10/14 00:08:26;;;;;;;;;;;12.20;99.90;;;;;;5118538;28;19968;-58
2023/10/14 00:10:52;;;;;;;;;;;12.30;99.90;;;;;;5118667;28;19961;-58
2023/10/14 00:13:17;;;;;;;;;;;12.20;99.90;;;;;;5100998;28;20353;-58
2023/10/14 00:15:45;;;;;;;;;;;12.30;99.90;;;;;;5098133;28;19916;-58
2023/10/14 00:18:11;;;;;;;;;;;12.30;99.90;;;;;;5116782;28;19908;-58
2023/10/14 00:20:37;;;;;;;;;;;12.20;99.90;;;;;;5118401;28;19959;-58
2023/10/14 00:23:04;;;;;;;;;;;12.20;99.90;;;;;;5118364;28;19915;-58
2023/10/14 00:25:33;;;;;;;;;;;12.20;99.90;;;;;;5118423;28;19911;-58
2023/10/14 00:28:05;;;;;;;;;;;12.30;99.90;;;;;;5118366;28;19927;-58
2023/10/14 00:30:31;;;;;;;;;;;12.20;99.90;;;;;;5118201;28;19912;-58
2023/10/14 00:32:57;;;;;;;;;;;12.20;99.90;;;;;;5116898;28;19908;-58
2023/10/14 00:35:26;;;;;;;;;;;12.20;99.90;;;;;;5116837;28;20386;-58
2023/10/14 00:37:52;;;;;;;;;;;12.20;99.90;;;;;;5116879;28;19961;-58
2023/10/14 00:40:22;;;;;;;;;;;12.20;99.90;;;;;;5116731;28;19919;-58
2023/10/14 00:42:50;;;;;;;;;;;12.20;99.90;;;;;;5117846;28;19987;-58
2023/10/14 00:45:20;;;;;;;;;;;12.20;99.90;;;;;;5117841;28;19918;-58
2023/10/14 00:47:49;;;;;;;;;;;12.20;99.90;;;;;;5117903;28;20257;-58
2023/10/14 00:52:57;;;;;;;;;;;12.30;99.90;;;;;;5118051;28;19912;-58
2023/10/14 00:55:35;;;;;;;;;;;12.30;99.90;;;;;;5116516;28;20322;-58
2023/10/14 00:58:00;;;;;;;;;;;12.40;99.90;;;;;;5117748;28;20089;-58
2023/10/14 01:00:46;;;;;;;;;;;12.30;99.90;;;;;;5116365;28;20002;-58
2023/10/14 01:03:15;;;;;;;;;;;12.30;99.90;;;;;;5116268;28;19915;-58
2023/10/14 01:05:41;;;;;;;;;;;12.20;99.90;;;;;;5117595;28;19911;-58
2023/10/14 01:08:11;;;;;;;;;;;12.20;99.90;;;;;;5117364;28;19919;-58
2023/10/14 01:10:38;;;;;;;;;;;12.20;99.90;;;;;;5116295;28;19915;-58
2023/10/14 01:13:13;;;;;;;;;;;12.10;99.90;;;;;;5101728;28;19920;-58
2023/10/14 01:15:43;;;;;;;;;;;12.10;99.90;;;;;;5097286;28;19990;-58
2023/10/14 01:18:10;;;;;;;;;;;12.10;99.90;;;;;;5115161;27;19992;-58
2023/10/14 01:20:39;;;;;;;;;;;12.10;99.90;;;;;;5117561;28;19912;-58
2023/10/14 01:23:08;;;;;;;;;;;12.10;99.90;;;;;;5115728;28;19923;-58
2023/10/14 01:25:40;;;;;;;;;;;12.10;99.90;;;;;;5117200;28;20483;-58
2023/10/14 01:28:11;;;;;;;;;;;12.10;99.90;;;;;;5115854;28;19912;-58
2023/10/14 01:30:45;;;;;;;;;;;12.20;99.90;;;;;;5117108;28;19916;-58
2023/10/14 01:33:16;;;;;;;;;;;12.30;99.90;;;;;;5116995;28;20286;-58
2023/10/14 01:35:45;;;;;;;;;;;12.20;99.90;;;;;;5117093;28;19919;-58
2023/10/14 01:38:10;;;;;;;;;;;12.10;99.90;;;;;;5115621;28;20474;-58
2023/10/14 01:40:38;;;;;;;;;;;12.10;99.90;;;;;;5116894;28;19920;-58
2023/10/14 01:43:08;;;;;;;;;;;12.00;99.90;;;;;;5115446;28;20010;-58
2023/10/14 01:46:00;;;;;;;;;;;11.80;99.90;;;;;;5115525;28;19912;-58
2023/10/14 01:48:31;;;;;;;;;;;11.80;99.90;;;;;;5115499;28;19919;-59
2023/10/14 01:50:57;;;;;;;;;;;11.80;99.90;;;;;;5116774;28;19998;-58
2023/10/14 01:53:25;;;;;;;;;;;11.80;99.90;;;;;;5116671;28;19911;-58
2023/10/14 01:55:52;;;;;;;;;;;11.80;99.90;;;;;;5115356;28;20010;-58
2023/10/14 01:58:22;;;;;;;;;;;11.70;99.90;;;;;;5115324;28;19922;-58
2023/10/14 02:00:58;;;;;;;;;;;11.70;99.90;;;;;;5115143;28;19919;-58
2023/10/14 02:03:24;;;;;;;;;;;11.60;99.90;;;;;;5116624;28;19919;-58
2023/10/14 02:05:53;;;;;;;;;;;11.70;99.90;;;;;;5116530;28;19918;-58
2023/10/14 02:08:23;;;;;;;;;;;11.60;99.90;;;;;;5116418;28;19915;-58
2023/10/14 02:10:54;;;;;;;;;;;11.40;99.90;;;;;;5114689;28;20006;-58
2023/10/14 02:13:21;;;;;;;;;;;11.50;99.90;;;;;;5098840;28;20010;-58
2023/10/14 02:15:47;;;;;;;;;;;11.50;99.90;;;;;;5094737;28;19919;-58
2023/10/14 02:18:20;;;;;;;;;;;11.50;99.90;;;;;;5113765;28;19912;-58
2023/10/14 02:21:33;;;;;;;;;;;11.60;99.90;;;;;;5115034;28;19954;-58
2023/10/14 02:23:43;;;;;;;;;;;11.50;99.90;;;;;;5100768;28;19920;-58
2023/10/14 02:26:17;;;;;;;;;;;11.50;99.90;;;;;;5116337;28;19935;-58
2023/10/14 02:28:45;;;;;;;;;;;11.60;99.90;;;;;;5115152;28;20045;-58
2023/10/14 02:31:18;;;;;;;;;;;11.60;99.90;;;;;;5116201;28;19956;-58
2023/10/14 02:33:45;;;;;;;;;;;11.60;99.90;;;;;;5116236;28;20466;-58
2023/10/14 02:36:14;;;;;;;;;;;11.60;99.90;;;;;;5116335;28;19912;-58
2023/10/14 02:38:44;;;;;;;;;;;11.50;99.90;;;;;;5116316;28;19986;-58
2023/10/14 02:41:10;;;;;;;;;;;11.50;99.90;;;;;;5116744;28;19912;-58
2023/10/14 02:43:39;;;;;;;;;;;11.50;99.90;;;;;;5116096;28;19922;-58
2023/10/14 02:46:04;;;;;;;;;;;11.40;99.90;;;;;;5116127;28;19998;-58
2023/10/14 02:48:49;;;;;;;;;;;11.40;99.90;;;;;;5116366;28;19959;-58
2023/10/14 02:51:16;;;;;;;;;;;11.30;99.90;;;;;;5114805;28;19911;-58
2023/10/14 02:53:43;;;;;;;;;;;11.20;99.90;;;;;;5115948;28;19915;-58
2023/10/14 02:56:20;;;;;;;;;;;11.10;99.90;;;;;;5116078;28;19912;-58
2023/10/14 02:58:46;;;;;;;;;;;11.10;99.90;;;;;;5116021;28;19955;-58
2023/10/14 03:01:12;;;;;;;;;;;11.10;99.90;;;;;;5115851;28;20272;-58
2023/10/14 03:03:42;;;;;;;;;;;11.10;99.90;;;;;;5115975;28;20383;-58
2023/10/14 03:06:14;;;;;;;;;;;11.20;99.90;;;;;;5115934;28;19992;-58
2023/10/14 03:08:41;;;;;;;;;;;11.10;99.90;;;;;;5115967;28;19923;-58
2023/10/14 03:11:16;;;;;;;;;;;11.00;99.90;;;;;;5114458;28;20391;-58
2023/10/14 03:13:44;;;;;;;;;;;10.90;99.90;;;;;;5075288;28;20290;-58
2023/10/14 03:16:15;;;;;;;;;;;10.80;99.90;;;;;;5078871;28;19997;-58
2023/10/14 03:18:40;;;;;;;;;;;10.80;99.90;;;;;;5114646;28;19918;-58
2023/10/14 03:21:20;;;;;;;;;;;10.90;99.90;;;;;;5115988;28;19907;-58
2023/10/14 03:23:46;;;;;;;;;;;11.00;99.90;;;;;;5117959;28;19915;-58
2023/10/14 03:26:15;;;;;;;;;;;10.90;99.90;;;;;;5118174;28;19912;-58
2023/10/14 03:28:44;;;;;;;;;;;10.80;99.90;;;;;;5119506;28;20323;-58
2023/10/14 03:31:14;;;;;;;;;;;10.70;99.90;;;;;;5119321;28;20014;-58
2023/10/14 03:33:43;;;;;;;;;;;10.70;99.90;;;;;;5119434;28;19912;-58
2023/10/14 03:36:15;;;;;;;;;;;10.60;99.90;;;;;;5119268;28;19911;-58
2023/10/14 03:38:41;;;;;;;;;;;10.50;99.90;;;;;;5119362;28;19975;-58
2023/10/14 03:41:16;;;;;;;;;;;10.50;99.90;;;;;;5119179;28;19912;-58
2023/10/14 03:44:09;;;;;;;;;;;10.50;99.90;;;;;;5119382;27;19999;-58
2023/10/14 03:46:32;;;;;;;;;;;10.60;99.90;;;;;;5118778;28;20053;-58
2023/10/14 03:48:58;;;;;;;;;;;10.60;99.90;;;;;;5119026;28;20289;-58
2023/10/14 03:51:24;;;;;;;;;;;10.60;99.90;;;;;;5119005;28;19916;-58
2023/10/14 03:53:57;;;;;;;;;;;10.50;99.90;;;;;;5118869;28;19915;-58
2023/10/14 03:56:27;;;;;;;;;;;10.60;99.90;;;;;;5118945;28;20246;-58
2023/10/14 03:58:57;;;;;;;;;;;10.50;99.90;;;;;;5118870;27;19911;-58
2023/10/14 04:01:28;;;;;;;;;;;10.50;99.90;;;;;;5118645;28;19916;-58
2023/10/14 04:03:54;;;;;;;;;;;10.40;99.90;;;;;;5118817;28;19915;-58
2023/10/14 04:06:19;;;;;;;;;;;10.50;99.90;;;;;;5118706;28;19919;-58
2023/10/14 04:08:48;;;;;;;;;;;10.50;99.90;;;;;;5118671;28;20357;-58
2023/10/14 04:11:27;;;;;;;;;;;10.50;99.90;;;;;;5118551;28;20372;-58
2023/10/14 04:14:03;;;;;;;;;;;10.40;99.90;;;;;;5077938;28;19924;-58
2023/10/14 04:17:18;;;;;;;;;;;10.40;99.90;;;;;;5086786;28;19919;-58
2023/10/14 04:19:27;;;;;;;;;;;10.50;99.90;;;;;;5115310;28;19912;-58
2023/10/14 04:21:59;;;;;;;;;;;10.30;99.90;;;;;;5118438;28;19911;-58
2023/10/14 04:26:51;;;;;;;;;;;10.40;99.90;;;;;;5118374;28;20345;-58
2023/10/14 04:29:39;;;;;;;;;;;10.30;99.90;;;;;;5118346;28;19912;-58
2023/10/14 04:32:14;;;;;;;;;;;10.30;99.90;;;;;;5118076;28;19915;-58
2023/10/14 04:34:46;;;;;;;;;;;10.10;99.90;;;;;;5117871;28;20359;-58
2023/10/14 04:37:19;;;;;;;;;;;10.10;99.90;;;;;;5118141;28;19915;-58
2023/10/14 04:39:45;;;;;;;;;;;10.10;99.90;;;;;;5118208;28;19916;-58
2023/10/14 04:44:54;;;;;;;;;;;10.20;99.90;;;;;;5117931;28;19919;-58
2023/10/14 04:47:27;;;;;;;;;;;10.10;99.90;;;;;;5117981;28;19918;-58
2023/10/14 04:49:53;;;;;;;;;;;10.20;99.90;;;;;;5117914;28;19912;-58
2023/10/14 04:52:19;;;;;;;;;;;10.20;99.90;;;;;;5117777;28;19908;-58
2023/10/14 04:54:54;;;;;;;;;;;10.20;99.90;;;;;;5118025;28;20301;-58
2023/10/14 04:57:22;;;;;;;;;;;10.20;99.90;;;;;;5117722;28;19939;-58
2023/10/14 04:59:52;;;;;;;;;;;10.30;99.90;;;;;;5118040;28;20006;-58
2023/10/14 05:02:20;;;;;;;;;;;10.30;99.90;;;;;;5117510;28;19947;-58
2023/10/14 05:04:50;;;;;;;;;;;10.20;99.90;;;;;;5117598;28;19908;-58
2023/10/14 05:07:16;;;;;;;;;;;10.10;99.90;;;;;;5117400;28;19919;-58
2023/10/14 05:09:49;;;;;;;;;;;10.10;99.90;;;;;;5117481;28;20288;-58
2023/10/14 05:12:18;;;;;;;;;;;10.00;99.90;;;;;;5108737;28;19920;-58
2023/10/14 05:14:43;;;;;;;;;;;10.10;99.90;;;;;;5097040;28;20011;-58
2023/10/14 05:19:44;;;;;;;;;;;10.20;99.90;;;;;;5117341;28;19911;-58
2023/10/14 05:22:19;;;;;;;;;;;10.20;99.90;;;;;;5117184;28;19912;-58
2023/10/14 05:24:48;;;;;;;;;;;10.40;99.90;;;;;;5117236;28;19920;-58
2023/10/14 05:27:17;;;;;;;;;;;10.70;99.90;;;;;;5117146;28;19916;-58
2023/10/14 05:29:50;;;;;;;;;;;11.10;99.90;;;;;;5117338;28;19912;-58
2023/10/14 05:32:18;;;;;;;;;;;11.30;99.90;;;;;;5117027;28;19912;-58
2023/10/14 05:34:44;;;;;;;;;;;11.20;99.90;;;;;;5116946;28;19916;-58
2023/10/14 05:37:11;;;;;;;;;;;11.30;99.90;;;;;;5116916;28;20322;-58
2023/10/14 05:39:40;;;;;;;;;;;11.70;99.90;;;;;;5117036;28;19912;-58
2023/10/14 05:42:15;;;;;;;;;;;11.90;99.90;;;;;;5116771;28;19954;-58
2023/10/14 05:44:47;;;;;;;;;;;12.10;99.90;;;;;;5116076;28;19973;-58
2023/10/14 05:47:13;;;;;;;;;;;12.30;99.90;;;;;;5116807;28;20361;-58
2023/10/14 05:49:39;;;;;;;;;;;12.40;99.90;;;;;;5116789;28;19915;-58
2023/10/14 05:52:05;;;;;;;;;;;12.30;99.90;;;;;;5116738;28;20273;-58
2023/10/14 05:54:31;;;;;;;;;;;12.20;99.90;;;;;;5116576;28;20410;-58
2023/10/14 05:56:56;;;;;;;;;;;12.30;99.90;;;;;;5116692;28;19919;-58
2023/10/14 05:59:22;;;;;;;;;;;12.40;99.90;;;;;;5116655;28;20385;-58
2023/10/14 06:01:48;;;;;;;;;;;12.90;99.90;;;;;;5116427;28;19916;-58
2023/10/14 06:04:17;;;;;;;;;;;13.30;99.90;;;;;;5115842;28;20201;-58
2023/10/14 06:06:42;;;;;;;;;;;13.40;99.90;;;;;;5116499;28;19915;-58
2023/10/14 06:09:09;;;;;;;;;;;14.00;99.90;;;;;;5116368;28;19919;-58
2023/10/14 06:11:35;;;;;;;;;;;14.40;99.90;;;;;;5113601;28;19954;-58
2023/10/14 06:14:04;;;;;;;;;;;14.50;99.90;;;;;;5095929;28;20385;-58
2023/10/14 06:16:31;;;;;;;;;;;14.80;99.90;;;;;;5100590;28;20010;-58
2023/10/14 06:18:57;;;;;;;;;;;14.90;99.90;;;;;;5116378;28;20357;-58
2023/10/14 06:21:27;;;;;;;;;;;15.10;99.90;;;;;;5116329;28;19911;-58
2023/10/14 06:23:55;;;;;;;;;;;15.10;99.90;;;;;;5116536;28;19923;-58
2023/10/14 06:26:21;;;;;;;;;;;15.20;99.90;;;;;;5116291;28;20337;-58
2023/10/14 06:28:55;;;;;;;;;;;15.50;99.90;;;;;;5116218;28;19935;-58
2023/10/14 06:31:22;;;;;;;;;;;15.70;99.60;;;;;;5116274;28;19961;-58
2023/10/14 06:33:48;;;;;;;;;;;16.30;99.90;;;;;;5116188;28;19918;-58
2023/10/14 06:36:14;;;;;;;;;;;16.30;98.60;;;;;;5116288;28;20355;-58
2023/10/14 06:38:45;;;;;;;;;;;16.90;97.70;;;;;;5116239;28;20381;-59
2023/10/14 06:41:12;;;;;;;;;;;17.20;97.20;;;;;;5116152;28;19919;-58
2023/10/14 06:43:38;;;;;;;;;;;17.60;96.00;;;;;;5115905;28;19916;-58
2023/10/14 06:46:04;;;;;;;;;;;17.90;94.80;;;;;;5116208;28;19947;-58
2023/10/14 06:48:31;;;;;;;;;;;17.80;95.10;;;;;;5116085;28;19961;-59
2023/10/14 06:50:58;;;;;;;;;;;18.10;93.30;;;;;;5116104;28;19912;-59
2023/10/14 06:53:28;;;;;;;;;;;18.20;94.20;;;;;;5116070;28;20376;-58
2023/10/14 06:55:54;;;;;;;;;;;18.10;93.10;;;;;;5116657;28;19918;-58
2023/10/14 06:58:21;;;;;;;;;;;18.60;93.10;;;;;;5119911;28;19918;-59
2023/10/14 07:00:48;;;;;;;;;;;19.20;91.90;;;;;;5119904;28;19950;-59
2023/10/14 07:03:15;;;;;;;;;;;19.40;90.40;;;;;;5119970;28;20051;-59
2023/10/14 07:05:48;;;;;;;;;;;19.70;91.10;;;;;;5119883;28;19924;-59
2023/10/14 07:08:19;;;;;;;;;;;20.50;88.80;;;;;;5119823;28;19915;-59
2023/10/14 07:10:47;;;;;;;;;;;20.70;85.10;;;;;;5119646;28;20383;-59
2023/10/14 07:13:13;;;;;;;;;;;20.60;83.80;;;;;;5102928;28;19912;-59
2023/10/14 07:15:41;;;;;;;;;;;21.30;82.10;;;;;;5099327;28;20066;-59
2023/10/14 07:18:08;;;;;;;;;;;21.30;80.40;;;;;;5116251;28;19912;-59
2023/10/14 07:20:34;;;;;;;;;;;21.70;78.80;;;;;;5118332;28;19912;-59
2023/10/14 07:23:00;;;;;;;;;;;21.70;77.70;;;;;;5119460;28;19922;-59
2023/10/14 07:25:27;;;;;;;;;;;22.10;75.80;;;;;;5119462;28;19918;-59
2023/10/14 07:27:52;;;;;;;;;;;22.30;74.20;;;;;;5119496;28;20014;-59
2023/10/14 07:30:19;;;;;;;;;;;22.20;73.50;;;;;;5118081;28;19955;-59
2023/10/14 07:32:46;;;;;;;;;;;22.40;71.50;;;;;;5119401;28;19916;-59
2023/10/14 07:35:13;;;;;;;;;;;22.70;71.30;;;;;;5119225;28;19912;-59
2023/10/14 07:37:46;;;;;;;;;;;22.60;70.60;;;;;;5119211;28;19956;-59
2023/10/14 07:40:22;;;;;;;;;;;23.10;69.10;;;;;;5119173;28;19915;-59
2023/10/14 07:42:52;;;;;;;;;;;23.30;68.50;;;;;;5119157;28;19916;-59
2023/10/14 07:45:18;;;;;;;;;;;23.50;66.50;;;;;;5119073;28;19965;-59
2023/10/14 07:47:44;;;;;;;;;;;23.80;67.50;;;;;;5119127;28;19923;-59
2023/10/14 07:50:11;;;;;;;;;;;24.30;63.30;;;;;;5118894;27;19912;-59
2023/10/14 07:52:37;;;;;;;;;;;24.20;63.10;;;;;;5118837;28;20372;-60
2023/10/14 07:55:04;;;;;;;;;;;25.20;59.80;;;;;;5119088;28;19912;-59
2023/10/14 07:57:30;;;;;;;;;;;25.40;58.50;;;;;;5118856;28;20345;-59
2023/10/14 07:59:59;;;;;;;;;;;25.20;59.10;;;;;;5118822;28;19912;-59
2023/10/14 08:02:29;;;;;;;;;;;25.40;58.30;;;;;;5118625;28;19926;-59
2023/10/14 08:04:54;;;;;;;;;;;25.40;57.40;;;;;;5118634;28;19915;-59
2023/10/14 08:07:20;;;;;;;;;;;26.00;56.80;;;;;;5118176;28;19919;-59
2023/10/14 08:09:47;;;;;;;;;;;26.20;53.60;;;;;;5118493;28;19994;-59
2023/10/14 08:12:14;;;;;;;;;;;25.80;55.20;;;;;;5110281;28;19938;-59
2023/10/14 08:14:40;;;;;;;;;;;26.10;55.10;;;;;;5098068;28;19917;-59
2023/10/14 08:17:11;;;;;;;;;;;26.10;56.10;;;;;;5107731;28;19976;-59
2023/10/14 08:19:40;;;;;;;;;;;26.30;55.30;;;;;;5118449;28;19935;-59
2023/10/14 08:22:08;;;;;;;;;;;26.60;54.60;;;;;;5118441;28;19912;-59
2023/10/14 08:24:33;;;;;;;;;;;26.70;53.10;;;;;;5118332;28;20285;-59
2023/10/14 08:26:59;;;;;;;;;;;27.00;53.00;;;;;;5118440;28;19911;-59
2023/10/14 08:29:26;;;;;;;;;;;27.20;51.90;;;;;;5118324;28;19918;-59
2023/10/14 08:31:53;;;;;;;;;;;27.40;52.40;;;;;;5118140;28;20369;-59
2023/10/14 08:34:23;;;;;;;;;;;27.40;51.80;;;;;;5118181;28;19908;-59
2023/10/14 08:36:49;;;;;;;;;;;27.00;51.80;;;;;;5118214;28;19923;-60
2023/10/14 08:39:15;;;;;;;;;;;27.50;53.60;;;;;;5118061;28;19915;-59
2023/10/14 08:41:45;;;;;;;;;;;27.90;49.60;;;;;;5118034;28;20276;-60
2023/10/14 08:44:11;;;;;;;;;;;28.20;48.60;;;;;;5117849;28;19922;-59
2023/10/14 08:46:40;;;;;;;;;;;28.40;49.50;;;;;;5117843;28;19961;-59
2023/10/14 08:49:08;;;;;;;;;;;28.80;50.70;;;;;;5117677;28;19973;-60
2023/10/14 08:51:35;;;;;;;;;;;29.30;48.70;;;;;;5117703;28;19965;-60
2023/10/14 08:54:06;;;;;;;;;;;28.70;47.40;;;;;;5117844;28;19961;-60
2023/10/14 08:56:34;;;;;;;;;;;28.60;48.30;;;;;;5117709;28;19911;-60
2023/10/14 08:59:00;;;;;;;;;;;28.70;46.70;;;;;;5117655;28;20020;-60
2023/10/14 09:01:27;;;;;;;;;;;28.60;46.60;;;;;;5117440;28;19916;-60
2023/10/14 09:03:53;;;;;;;;;;;28.80;47.00;;;;;;5117405;28;19916;-60
2023/10/14 09:06:19;;;;;;;;;;;29.40;45.70;;;;;;5117522;28;19919;-60
2023/10/14 09:08:47;;;;;;;;;;;29.50;45.50;;;;;;5117765;28;20322;-60
2023/10/14 09:11:33;;;;;;;;;;;29.90;44.50;;;;;;5117716;28;19916;-60
2023/10/14 09:14:06;;;;;;;;;;;30.30;43.00;;;;;;5076689;28;19962;-60
2023/10/14 09:16:32;;;;;;;;;;;30.20;43.00;;;;;;5086379;28;19919;-60
2023/10/14 09:18:59;;;;;;;;;;;30.10;43.20;;;;;;5116980;28;19912;-59
2023/10/14 09:21:25;;;;;;;;;;;29.90;42.50;;;;;;5116584;28;20364;-60
2023/10/14 09:23:51;;;;;;;;;;;29.70;41.80;;;;;;5117076;28;19916;-60
2023/10/14 09:26:18;;;;;;;;;;;30.80;43.10;;;;;;5117095;28;20022;-60
2023/10/14 09:28:45;;;;;;;;;;;31.40;40.60;;;;;;5117161;28;20438;-60
2023/10/14 09:31:11;;;;;;;;;;;31.70;38.60;;;;;;5117125;28;19916;-60
2023/10/14 09:33:41;;;;;;;;;;;32.00;37.80;;;;;;5117025;28;19934;-60
2023/10/14 09:36:22;;;;;;;;;;;31.90;37.50;;;;;;5116985;28;19943;-60
2023/10/14 09:38:48;;;;;;;;;;;32.40;35.70;;;;;;5117031;28;19912;-60
2023/10/14 09:41:15;;;;;;;;;;;32.80;35.30;;;;;;5116739;28;19923;-60
2023/10/14 09:43:48;;;;;;;;;;;32.70;34.40;;;;;;5116921;28;19915;-60
2023/10/14 09:46:20;;;;;;;;;;;31.90;35.80;;;;;;5116743;28;19911;-60
2023/10/14 09:48:46;;;;;;;;;;;32.70;34.00;;;;;;5116917;28;19908;-60
2023/10/14 09:51:15;;;;;;;;;;;33.30;32.90;;;;;;5116883;28;19916;-60
2023/10/14 09:53:44;;;;;;;;;;;32.90;32.50;;;;;;5116742;28;19918;-58
2023/10/14 09:56:11;;;;;;;;;;;32.60;32.60;;;;;;5116709;28;19911;-58
2023/10/14 09:58:41;;;;;;;;;;;31.70;35.20;;;;;;5116787;28;19915;-58
2023/10/14 10:01:07;;;;;;;;;;;31.00;37.30;;;;;;5116426;28;20328;-58
2023/10/14 10:03:38;;;;;;;;;;;31.70;36.00;;;;;;5116532;28;19916;-58
2023/10/14 10:06:13;;;;;;;;;;;32.40;32.30;;;;;;5116617;28;20015;-58
2023/10/14 10:08:57;;;;;;;;;;;33.00;30.00;;;;;;5117140;28;19957;-58
2023/10/14 10:11:23;;;;;;;;;;;33.30;30.10;;;;;;5115297;28;19957;-58
2023/10/14 10:13:53;;;;;;;;;;;33.70;28.00;;;;;;5095929;28;20254;-58
2023/10/14 10:16:20;;;;;;;;;;;33.00;30.00;;;;;;5098797;28;20428;-58
2023/10/14 10:18:49;;;;;;;;;;;33.40;30.40;;;;;;5116363;28;20355;-58
2023/10/14 10:21:17;;;;;;;;;;;33.00;29.60;;;;;;5116409;28;19920;-58
2023/10/14 10:23:44;;;;;;;;;;;33.30;29.20;;;;;;5116293;28;19912;-58
2023/10/14 10:26:12;;;;;;;;;;;33.40;28.60;;;;;;5116328;28;19911;-58
2023/10/14 10:28:38;;;;;;;;;;;33.70;28.70;;;;;;5116255;28;19938;-58
2023/10/14 10:31:09;;;;;;;;;;;32.80;28.40;;;;;;5117317;28;19916;-58
2023/10/14 10:33:54;;;;;;;;;;;32.60;28.70;;;;;;5120476;28;19915;-58
2023/10/14 10:36:21;;;;;;;;;;;33.00;29.30;;;;;;5120528;28;19916;-58
2023/10/14 10:38:47;;;;;;;;;;;33.30;27.30;;;;;;5120505;28;19960;-58
2023/10/14 10:41:24;;;;;;;;;;;33.60;26.30;;;;;;5120124;28;20349;-58
2023/10/14 10:43:50;;;;;;;;;;;34.30;27.70;;;;;;5120270;28;20004;-58
2023/10/14 10:46:28;;;;;;;;;;;34.50;25.30;;;;;;5120380;28;19919;-58
2023/10/14 10:48:54;;;;;;;;;;;34.00;25.50;;;;;;5120328;28;19912;-58
2023/10/14 10:51:21;;;;;;;;;;;34.10;24.10;;;;;;5120095;28;19915;-58
2023/10/14 10:53:48;;;;;;;;;;;34.50;24.50;;;;;;5119731;28;19934;-58
2023/10/14 10:56:19;;;;;;;;;;;34.00;24.40;;;;;;5120079;28;19976;-58
2023/10/14 10:58:45;;;;;;;;;;;33.50;24.90;;;;;;5120100;28;19922;-59
2023/10/14 11:01:12;;;;;;;;;;;33.60;23.80;;;;;;5119597;28;20284;-59
2023/10/14 11:03:37;;;;;;;;;;;33.90;23.90;;;;;;5119717;28;20333;-59
2023/10/14 11:06:04;;;;;;;;;;;34.40;23.40;;;;;;5119899;28;19918;-59
2023/10/14 11:08:30;;;;;;;;;;;33.90;22.80;;;;;;5119764;28;20357;-59
2023/10/14 11:10:57;;;;;;;;;;;34.00;21.20;;;;;;5119883;28;19912;-59
2023/10/14 11:13:23;;;;;;;;;;;34.40;23.60;;;;;;5101446;28;19912;-59
2023/10/14 11:15:50;;;;;;;;;;;34.80;22.80;;;;;;5099360;28;20270;-59
2023/10/14 11:18:18;;;;;;;;;;;34.30;19.90;;;;;;5118671;28;20254;-58
2023/10/14 11:20:45;;;;;;;;;;;33.60;21.60;;;;;;5119536;28;19919;-58
2023/10/14 11:23:12;;;;;;;;;;;34.60;22.10;;;;;;5119473;28;19922;-59
2023/10/14 11:25:45;;;;;;;;;;;34.80;21.90;;;;;;5119577;28;20365;-59
2023/10/14 11:28:14;;;;;;;;;;;34.70;19.60;;;;;;5119497;28;19911;-58
2023/10/14 11:30:41;;;;;;;;;;;33.50;20.50;;;;;;5118246;28;19960;-58
2023/10/14 11:33:14;;;;;;;;;;;33.40;23.90;;;;;;5119401;28;19919;-58
2023/10/14 11:35:40;;;;;;;;;;;34.40;22.20;;;;;;5119390;28;19912;-58
2023/10/14 11:38:07;;;;;;;;;;;34.50;20.80;;;;;;5119383;28;19934;-58
2023/10/14 11:40:37;;;;;;;;;;;34.20;21.20;;;;;;5119289;28;19908;-59
2023/10/14 11:43:04;;;;;;;;;;;34.00;20.10;;;;;;5118001;28;19915;-58
2023/10/14 11:45:35;;;;;;;;;;;34.60;20.90;;;;;;5119128;28;19957;-58
2023/10/14 11:48:01;;;;;;;;;;;34.90;20.00;;;;;;5119006;28;20445;-58
2023/10/14 11:50:30;;;;;;;;;;;34.40;19.70;;;;;;5119038;28;19951;-58
2023/10/14 11:52:57;;;;;;;;;;;33.90;19.90;;;;;;5118948;28;19995;-59
2023/10/14 11:55:25;;;;;;;;;;;33.50;20.00;;;;;;5119072;28;19911;-59
2023/10/14 11:57:53;;;;;;;;;;;34.00;21.90;;;;;;5118914;28;19912;-59
2023/10/14 12:00:20;;;;;;;;;;;33.70;20.40;;;;;;5118655;28;19915;-59
2023/10/14 12:02:50;;;;;;;;;;;33.50;19.50;;;;;;5118656;28;20357;-59
2023/10/14 12:05:16;;;;;;;;;;;32.40;21.50;;;;;;5118894;28;19954;-58
2023/10/14 12:07:47;;;;;;;;;;;32.50;23.10;;;;;;5118906;28;19908;-59
2023/10/14 12:10:12;;;;;;;;;;;32.80;20.60;;;;;;5118698;28;19911;-58
2023/10/14 12:12:39;;;;;;;;;;;33.30;22.70;;;;;;5106715;28;20464;-59
2023/10/14 12:15:08;;;;;;;;;;;33.10;20.10;;;;;;5097967;28;19912;-58
2023/10/14 12:17:34;;;;;;;;;;;32.80;21.30;;;;;;5111751;28;19911;-59
2023/10/14 12:20:04;;;;;;;;;;;33.10;20.00;;;;;;5118504;28;19912;-59
2023/10/14 12:22:31;;;;;;;;;;;32.50;22.20;;;;;;5118372;28;19995;-59
2023/10/14 12:24:57;;;;;;;;;;;32.80;21.50;;;;;;5118275;28;19922;-58
2023/10/14 12:27:25;;;;;;;;;;;33.20;21.10;;;;;;5118341;28;19908;-58
2023/10/14 12:29:52;;;;;;;;;;;33.40;20.60;;;;;;5118343;28;19912;-58
2023/10/14 12:32:18;;;;;;;;;;;33.50;21.40;;;;;;5118110;28;19920;-59
2023/10/14 12:34:45;;;;;;;;;;;33.40;20.70;;;;;;5118285;28;19912;-59
2023/10/14 12:37:30;;;;;;;;;;;33.20;20.00;;;;;;5118321;28;20319;-59
2023/10/14 12:40:04;;;;;;;;;;;33.20;20.10;;;;;;5118108;28;20284;-58
2023/10/14 12:42:45;;;;;;;;;;;33.00;21.60;;;;;;5118042;27;19919;-58
2023/10/14 12:45:13;;;;;;;;;;;32.80;20.50;;;;;;5117954;28;20352;-58
2023/10/14 12:47:45;;;;;;;;;;;32.30;22.20;;;;;;5117926;28;20349;-58
2023/10/14 12:50:13;;;;;;;;;;;32.80;23.10;;;;;;5117792;28;19923;-58
2023/10/14 12:52:39;;;;;;;;;;;33.10;21.00;;;;;;5117858;28;19919;-58
2023/10/14 12:55:14;;;;;;;;;;;32.90;20.40;;;;;;5117665;28;20364;-58
2023/10/14 12:57:41;;;;;;;;;;;32.70;21.70;;;;;;5117878;28;19912;-58
2023/10/14 13:00:17;;;;;;;;;;;32.90;20.80;;;;;;5117631;28;20372;-58
2023/10/14 13:02:43;;;;;;;;;;;33.20;22.00;;;;;;5117520;28;20365;-58
2023/10/14 13:05:13;;;;;;;;;;;32.80;23.40;;;;;;5117595;28;19911;-58
2023/10/14 13:07:39;;;;;;;;;;;33.20;21.40;;;;;;5117520;28;19912;-58
2023/10/14 13:10:08;;;;;;;;;;;33.20;22.30;;;;;;5117371;28;20310;-58
2023/10/14 13:12:34;;;;;;;;;;;32.90;24.20;;;;;;5106125;28;20005;-58
2023/10/14 13:15:05;;;;;;;;;;;32.70;21.80;;;;;;5097077;28;19916;-58
2023/10/14 13:17:35;;;;;;;;;;;33.00;22.50;;;;;;5110050;28;19918;-59
2023/10/14 13:20:05;;;;;;;;;;;32.50;24.20;;;;;;5117399;27;20433;-58
2023/10/14 13:22:34;;;;;;;;;;;32.80;22.30;;;;;;5117240;28;19979;-58
2023/10/14 13:25:01;;;;;;;;;;;32.80;23.90;;;;;;5115653;28;19951;-58
2023/10/14 13:27:27;;;;;;;;;;;32.60;23.00;;;;;;5117168;28;19916;-58
2023/10/14 13:29:53;;;;;;;;;;;32.30;23.40;;;;;;5117021;28;19972;-58
2023/10/14 13:32:24;;;;;;;;;;;32.10;24.80;;;;;;5117063;28;19911;-58
2023/10/14 13:34:50;;;;;;;;;;;32.30;23.70;;;;;;5117089;28;19915;-58
2023/10/14 13:37:16;;;;;;;;;;;32.00;23.30;;;;;;5117062;28;19911;-58
2023/10/14 13:39:42;;;;;;;;;;;32.10;25.00;;;;;;5117047;28;19960;-59
2023/10/14 13:42:08;;;;;;;;;;;32.10;22.40;;;;;;5116797;28;19911;-59
2023/10/14 13:44:34;;;;;;;;;;;32.10;21.60;;;;;;5116734;28;20384;-59
2023/10/14 13:47:04;;;;;;;;;;;32.30;24.10;;;;;;5116963;28;19990;-59
2023/10/14 13:49:30;;;;;;;;;;;32.30;23.80;;;;;;5116786;28;19911;-58
2023/10/14 13:51:55;;;;;;;;;;;32.50;23.00;;;;;;5116856;28;19923;-59
2023/10/14 13:54:21;;;;;;;;;;;32.40;23.20;;;;;;5116618;28;19965;-58
2023/10/14 13:56:47;;;;;;;;;;;32.30;23.50;;;;;;5116651;28;20361;-59
2023/10/14 13:59:13;;;;;;;;;;;32.30;22.80;;;;;;5116608;28;19911;-58
2023/10/14 14:01:39;;;;;;;;;;;32.00;24.90;;;;;;5116562;28;19998;-59
2023/10/14 14:04:07;;;;;;;;;;;32.10;24.20;;;;;;5116473;28;19912;-59
2023/10/14 14:06:33;;;;;;;;;;;31.70;25.20;;;;;;5115844;28;19918;-59
2023/10/14 14:09:02;;;;;;;;;;;31.70;24.60;;;;;;5116501;28;19912;-58
2023/10/14 14:11:29;;;;;;;;;;;31.20;24.10;;;;;;5114666;28;19911;-58
2023/10/14 14:13:58;;;;;;;;;;;31.10;26.00;;;;;;5095969;28;20007;-59
2023/10/14 14:16:23;;;;;;;;;;;30.80;27.80;;;;;;5099690;28;20321;-59
2023/10/14 14:18:49;;;;;;;;;;;30.90;26.40;;;;;;5116385;28;19915;-58
2023/10/14 14:21:16;;;;;;;;;;;30.50;29.60;;;;;;5116389;28;20405;-59
2023/10/14 14:23:43;;;;;;;;;;;30.30;30.00;;;;;;5116253;28;19977;-58
2023/10/14 14:26:09;;;;;;;;;;;29.90;28.80;;;;;;5116278;28;20315;-58
2023/10/14 14:28:37;;;;;;;;;;;30.00;30.10;;;;;;5116317;28;19911;-58
2023/10/14 14:31:03;;;;;;;;;;;29.60;30.10;;;;;;5116417;28;19961;-58
2023/10/14 14:33:29;;;;;;;;;;;29.50;30.50;;;;;;5116264;28;20363;-58
2023/10/14 14:35:55;;;;;;;;;;;29.30;30.00;;;;;;5116273;28;20405;-58